createdAt,value
2023-05-04T00:02:05.986Z,8.10
2023-05-04T00:04:32.700Z,8.00
2023-05-04T00:06:59.486Z,8.00
2023-05-04T00:09:26.107Z,8.00
2023-05-04T00:11:52.722Z,7.90
2023-05-04T00:14:19.366Z,7.90
2023-05-04T00:16:46.116Z,7.90
2023-05-04T00:19:13.150Z,7.80
2023-05-04T00:21:39.836Z,7.80
2023-05-04T00:24:06.989Z,7.70
2023-05-04T00:26:33.697Z,7.70
2023-05-04T00:29:00.525Z,7.70
2023-05-04T00:31:27.315Z,7.70
2023-05-04T00:33:54.024Z,7.70
2023-05-04T00:36:20.979Z,7.70
2023-05-04T00:38:51.790Z,7.70
2023-05-04T00:41:20.089Z,7.70
2023-05-04T00:43:47.418Z,7.70
2023-05-04T00:46:14.902Z,7.70
2023-05-04T00:48:42.817Z,7.60
2023-05-04T00:51:11.138Z,7.60
2023-05-04T00:53:39.129Z,7.50
2023-05-04T00:56:07.501Z,7.50
2023-05-04T00:58:35.122Z,7.50
2023-05-04T01:01:03.357Z,7.50
2023-05-04T01:03:31.507Z,7.50
2023-05-04T01:06:15.393Z,7.50
2023-05-04T01:08:50.483Z,7.50
2023-05-04T01:11:32.266Z,7.50
2023-05-04T01:14:01.790Z,7.40
2023-05-04T01:16:28.680Z,7.40
2023-05-04T01:18:55.374Z,7.30
2023-05-04T01:21:22.067Z,7.40
2023-05-04T01:23:48.756Z,7.40
2023-05-04T01:26:25.908Z,7.30
2023-05-04T01:29:00.315Z,7.40
2023-05-04T01:31:27.487Z,7.30
2023-05-04T01:33:56.093Z,7.30
2023-05-04T01:36:23.686Z,7.30
2023-05-04T01:38:54.695Z,7.20
2023-05-04T01:41:21.735Z,7.30
2023-05-04T01:43:48.534Z,7.30
2023-05-04T01:46:16.282Z,7.20
2023-05-04T01:48:42.979Z,7.30
2023-05-04T01:51:09.648Z,7.30
2023-05-04T01:53:36.395Z,7.30
2023-05-04T01:56:03.239Z,7.30
2023-05-04T01:58:30.158Z,7.20
2023-05-04T02:00:59.169Z,7.10
2023-05-04T02:03:26.299Z,7.20
2023-05-04T02:05:53.010Z,7.20
2023-05-04T02:08:19.828Z,7.20
2023-05-04T02:10:46.474Z,7.20
2023-05-04T02:13:13.170Z,7.20
2023-05-04T02:15:39.847Z,7.20
2023-05-04T02:18:06.711Z,7.20
2023-05-04T02:20:33.426Z,7.20
2023-05-04T02:23:00.043Z,7.20
2023-05-04T02:25:26.765Z,7.10
2023-05-04T02:27:53.443Z,7.10
2023-05-04T02:30:20.419Z,7.10
2023-05-04T02:32:47.137Z,7.10
2023-05-04T02:35:13.776Z,7.10
2023-05-04T02:37:40.447Z,7.00
2023-05-04T02:40:07.909Z,7.10
2023-05-04T02:42:34.710Z,7.00
2023-05-04T02:45:01.419Z,7.10
2023-05-04T02:47:28.138Z,7.10
2023-05-04T02:49:54.873Z,7.10
2023-05-04T02:52:22.573Z,7.10
2023-05-04T02:54:51.158Z,7.00
2023-05-04T02:57:19.088Z,7.00
2023-05-04T02:59:46.780Z,7.00
2023-05-04T03:02:13.469Z,7.00
2023-05-04T03:04:40.107Z,7.00
2023-05-04T03:07:06.788Z,7.10
2023-05-04T03:09:33.447Z,7.10
2023-05-04T03:12:00.124Z,7.00
2023-05-04T03:14:26.887Z,7.00
2023-05-04T03:16:53.502Z,7.00
2023-05-04T03:19:21.982Z,6.90
2023-05-04T03:21:48.990Z,6.90
2023-05-04T03:24:18.281Z,6.90
2023-05-04T03:26:44.992Z,7.00
2023-05-04T03:29:11.674Z,7.00
2023-05-04T03:31:38.412Z,7.00
2023-05-04T03:34:05.105Z,7.00
2023-05-04T03:36:31.776Z,7.00
2023-05-04T03:38:58.489Z,7.00
2023-05-04T03:41:25.455Z,7.00
2023-05-04T03:43:52.135Z,7.00
2023-05-04T03:46:18.810Z,7.00
2023-05-04T03:48:45.499Z,7.00
2023-05-04T03:51:14.340Z,7.00
2023-05-04T03:53:42.784Z,7.00
2023-05-04T03:56:11.302Z,7.00
2023-05-04T03:58:37.940Z,7.10
2023-05-04T04:01:04.648Z,7.00
2023-05-04T04:03:31.676Z,7.00
2023-05-04T04:05:58.728Z,7.00
2023-05-04T04:08:26.197Z,7.00
2023-05-04T04:10:52.839Z,7.00
2023-05-04T04:13:19.592Z,7.00
2023-05-04T04:15:46.616Z,6.90
2023-05-04T04:18:13.419Z,6.90
2023-05-04T04:20:40.198Z,6.90
2023-05-04T04:23:06.871Z,6.90
2023-05-04T04:25:33.773Z,6.90
2023-05-04T04:28:00.456Z,6.90
2023-05-04T04:30:27.142Z,7.00
2023-05-04T04:32:54.678Z,7.00
2023-05-04T04:35:22.392Z,6.90
2023-05-04T04:37:49.216Z,7.00
2023-05-04T04:40:15.908Z,6.90
2023-05-04T04:42:42.571Z,7.00
2023-05-04T04:45:10.079Z,7.00
2023-05-04T04:47:36.734Z,7.10
2023-05-04T04:50:05.063Z,7.00
2023-05-04T04:52:33.201Z,7.00
2023-05-04T04:55:00.019Z,7.10
2023-05-04T04:57:27.020Z,7.10
2023-05-04T04:59:53.683Z,7.10
2023-05-04T05:02:20.620Z,7.20
2023-05-04T05:04:47.319Z,7.20
2023-05-04T05:07:14.108Z,7.20
2023-05-04T05:09:41.142Z,7.20
2023-05-04T05:12:07.864Z,7.20
2023-05-04T05:14:35.170Z,7.20
2023-05-04T05:17:03.986Z,7.30
2023-05-04T05:19:31.145Z,7.30
2023-05-04T05:21:57.861Z,7.30
2023-05-04T05:24:24.553Z,7.30
2023-05-04T05:26:52.957Z,7.30
2023-05-04T05:29:19.599Z,7.40
2023-05-04T05:31:46.744Z,7.40
2023-05-04T05:34:13.385Z,7.40
2023-05-04T05:36:40.378Z,7.40
2023-05-04T05:39:07.076Z,7.50
2023-05-04T05:41:34.326Z,7.50
2023-05-04T05:44:01.017Z,7.60
2023-05-04T05:46:28.349Z,7.70
2023-05-04T05:48:55.196Z,7.70
2023-05-04T05:51:21.823Z,7.80
2023-05-04T05:53:48.470Z,7.80
2023-05-04T05:56:15.216Z,7.90
2023-05-04T05:58:41.856Z,7.90
2023-05-04T06:01:08.596Z,8.00
2023-05-04T06:03:35.536Z,8.10
2023-05-04T06:06:02.257Z,8.20
2023-05-04T06:08:28.894Z,8.20
2023-05-04T06:10:56.322Z,8.30
2023-05-04T06:13:22.976Z,8.40
2023-05-04T06:15:53.669Z,8.50
2023-05-04T06:18:21.222Z,8.60
2023-05-04T06:20:47.960Z,8.80
2023-05-04T06:23:15.670Z,8.90
2023-05-04T06:25:42.599Z,9.00
2023-05-04T06:28:09.323Z,9.30
2023-05-04T06:30:36.571Z,9.40
2023-05-04T06:33:04.489Z,9.60
2023-05-04T06:35:31.501Z,9.80
2023-05-04T06:37:58.259Z,10.10
2023-05-04T06:40:26.087Z,10.30
2023-05-04T06:42:52.866Z,10.40
2023-05-04T06:45:19.617Z,10.50
2023-05-04T06:47:47.287Z,10.60
2023-05-04T06:50:14.463Z,10.60
2023-05-04T06:52:44.150Z,10.50
2023-05-04T06:55:11.310Z,10.60
2023-05-04T06:57:37.956Z,10.50
2023-05-04T07:00:05.320Z,10.50
2023-05-04T07:02:32.162Z,10.70
2023-05-04T07:04:58.838Z,10.80
2023-05-04T07:07:25.531Z,10.70
2023-05-04T07:09:52.125Z,10.70
2023-05-04T07:12:18.725Z,10.60
2023-05-04T07:14:45.429Z,10.70
2023-05-04T07:17:14.314Z,10.70
2023-05-04T07:19:41.167Z,10.80
2023-05-04T07:22:07.856Z,10.90
2023-05-04T07:24:34.482Z,11.00
2023-05-04T07:27:01.096Z,11.10
2023-05-04T07:29:27.790Z,11.20
2023-05-04T07:31:54.467Z,11.30
2023-05-04T07:34:23.186Z,11.50
2023-05-04T07:36:51.972Z,11.60
2023-05-04T07:39:18.645Z,11.60
2023-05-04T07:41:45.927Z,11.80
2023-05-04T07:44:13.688Z,11.90
2023-05-04T07:46:40.750Z,12.00
2023-05-04T07:49:07.428Z,12.10
2023-05-04T07:51:34.024Z,12.10
2023-05-04T07:54:00.823Z,12.20
2023-05-04T07:56:27.476Z,12.30
2023-05-04T07:58:54.119Z,12.40
2023-05-04T08:01:20.921Z,12.70
2023-05-04T08:03:48.438Z,13.00
2023-05-04T08:06:15.139Z,13.20
2023-05-04T08:08:42.029Z,13.40
2023-05-04T08:11:19.941Z,13.80
2023-05-04T08:13:48.670Z,14.00
2023-05-04T08:16:15.620Z,14.20
2023-05-04T08:18:42.462Z,14.30
2023-05-04T08:21:09.134Z,14.30
2023-05-04T08:23:36.300Z,14.30
2023-05-04T08:26:04.574Z,14.40
2023-05-04T08:28:40.344Z,14.60
2023-05-04T08:31:07.808Z,15.00
2023-05-04T08:33:34.642Z,15.60
2023-05-04T08:36:01.394Z,16.30
2023-05-04T08:38:28.221Z,16.50
2023-05-04T08:40:55.015Z,17.00
2023-05-04T08:43:21.768Z,17.20
2023-05-04T08:45:49.594Z,17.20
2023-05-04T08:48:16.519Z,17.30
2023-05-04T08:50:43.479Z,17.50
2023-05-04T08:53:13.838Z,17.80
2023-05-04T08:55:43.873Z,17.80
2023-05-04T08:58:12.861Z,17.70
2023-05-04T09:00:41.196Z,17.80
2023-05-04T09:03:10.342Z,17.80
2023-05-04T09:05:38.339Z,18.00
2023-05-04T09:08:05.710Z,18.10
2023-05-04T09:10:33.565Z,18.50
2023-05-04T09:13:00.672Z,18.80
2023-05-04T09:15:27.348Z,19.20
2023-05-04T09:17:59.006Z,19.30
2023-05-04T09:20:26.083Z,19.50
2023-05-04T09:23:07.298Z,19.70
2023-05-04T09:25:48.315Z,20.10
2023-05-04T09:28:16.361Z,20.30
2023-05-04T09:30:43.681Z,20.50
2023-05-04T09:33:10.832Z,20.60
2023-05-04T09:35:42.013Z,20.70
2023-05-04T09:38:09.301Z,20.60
2023-05-04T09:40:42.003Z,20.60
2023-05-04T09:43:09.445Z,20.60
2023-05-04T09:45:44.731Z,20.60
2023-05-04T09:48:21.378Z,20.60
2023-05-04T09:51:08.368Z,20.50
2023-05-04T09:53:38.280Z,20.40
2023-05-04T09:56:08.742Z,20.60
2023-05-04T09:58:36.589Z,20.80
2023-05-04T10:01:04.068Z,21.10
2023-05-04T10:03:31.662Z,21.50
2023-05-04T10:06:00.358Z,21.80
2023-05-04T10:08:31.396Z,21.90
2023-05-04T10:10:58.386Z,22.30
2023-05-04T10:13:26.039Z,22.60
2023-05-04T10:16:24.526Z,22.60
2023-05-04T10:19:17.040Z,22.80
2023-05-04T10:21:52.363Z,22.90
2023-05-04T10:24:27.785Z,22.70
2023-05-04T10:27:14.033Z,23.20
2023-05-04T10:29:42.142Z,23.40
2023-05-04T10:32:22.321Z,22.60
2023-05-04T10:34:49.461Z,22.70
2023-05-04T10:37:21.654Z,22.50
2023-05-04T10:39:53.631Z,22.50
2023-05-04T10:42:21.217Z,22.70
2023-05-04T10:44:53.087Z,22.70
2023-05-04T10:47:32.687Z,22.90
2023-05-04T10:50:10.963Z,22.80
2023-05-04T10:52:48.626Z,22.90
2023-05-04T10:55:16.461Z,22.70
2023-05-04T10:57:50.865Z,22.80
2023-05-04T11:00:19.075Z,22.80
2023-05-04T11:02:49.544Z,22.50
2023-05-04T11:05:19.899Z,22.70
2023-05-04T11:07:50.680Z,22.80
2023-05-04T11:10:25.606Z,22.70
2023-05-04T11:12:55.169Z,22.40
2023-05-04T11:15:22.008Z,22.10
2023-05-04T11:17:51.005Z,21.60
2023-05-04T11:20:25.453Z,21.50
2023-05-04T11:22:54.613Z,21.60
2023-05-04T11:25:31.095Z,21.30
2023-05-04T11:27:58.861Z,21.10
2023-05-04T11:30:35.870Z,21.10
2023-05-04T11:33:04.721Z,21.10
2023-05-04T11:35:32.236Z,20.90
2023-05-04T11:37:59.028Z,20.90
2023-05-04T11:40:26.867Z,20.90
2023-05-04T11:42:56.763Z,20.80
2023-05-04T11:45:26.358Z,20.80
2023-05-04T11:47:56.461Z,21.00
2023-05-04T11:50:24.629Z,20.90
2023-05-04T11:52:51.264Z,21.10
2023-05-04T11:55:31.219Z,21.20
2023-05-04T11:57:59.103Z,21.30
2023-05-04T12:00:40.131Z,21.50
2023-05-04T12:03:12.992Z,21.60
2023-05-04T12:05:53.897Z,21.70
2023-05-04T12:08:29.828Z,21.90
2023-05-04T12:11:12.719Z,21.80
2023-05-04T12:13:40.845Z,21.60
2023-05-04T12:16:18.187Z,21.50
2023-05-04T12:18:46.160Z,21.30
2023-05-04T12:21:21.416Z,21.10
2023-05-04T12:23:48.023Z,21.20
2023-05-04T12:26:18.032Z,21.30
2023-05-04T12:28:46.195Z,21.60
2023-05-04T12:31:13.026Z,21.70
2023-05-04T12:33:39.793Z,22.10
2023-05-04T12:36:07.070Z,22.00
2023-05-04T12:38:34.370Z,22.00
2023-05-04T12:41:04.306Z,21.80
2023-05-04T12:43:32.245Z,21.70
2023-05-04T12:45:59.214Z,21.50
2023-05-04T12:48:28.961Z,21.50
2023-05-04T12:50:55.942Z,21.70
2023-05-04T12:53:24.497Z,21.70
2023-05-04T12:55:51.227Z,21.70
2023-05-04T12:58:17.868Z,21.70
2023-05-04T13:00:45.969Z,21.60
2023-05-04T13:03:13.176Z,21.40
2023-05-04T13:05:40.310Z,21.40
2023-05-04T13:08:06.996Z,21.50
2023-05-04T13:10:33.603Z,21.50
2023-05-04T13:13:00.447Z,21.40
2023-05-04T13:15:27.957Z,21.40
2023-05-04T13:17:54.877Z,21.30
2023-05-04T13:20:22.580Z,21.30
2023-05-04T13:22:50.441Z,21.10
2023-05-04T13:25:17.102Z,21.20
2023-05-04T13:27:43.739Z,21.10
2023-05-04T13:30:10.956Z,21.10
2023-05-04T13:32:37.901Z,21.20
2023-05-04T13:35:04.943Z,21.40
2023-05-04T13:37:31.767Z,21.40
2023-05-04T13:39:59.504Z,21.30
2023-05-04T13:42:26.331Z,21.40
2023-05-04T13:44:53.004Z,21.60
2023-05-04T13:47:19.614Z,21.50
2023-05-04T13:49:46.436Z,21.50
2023-05-04T13:52:13.452Z,21.40
2023-05-04T13:54:40.282Z,21.40
2023-05-04T13:57:07.269Z,21.40
2023-05-04T13:59:34.259Z,21.50
2023-05-04T14:02:01.297Z,21.50
2023-05-04T14:04:28.076Z,21.50
2023-05-04T14:06:54.895Z,21.50
2023-05-04T14:09:21.914Z,21.60
2023-05-04T14:11:48.610Z,21.60
2023-05-04T14:14:15.328Z,21.50
2023-05-04T14:16:42.161Z,21.60
2023-05-04T14:19:08.934Z,21.50
2023-05-04T14:21:36.416Z,21.40
2023-05-04T14:24:03.535Z,21.60
2023-05-04T14:26:32.088Z,21.60
2023-05-04T14:28:58.979Z,21.50
2023-05-04T14:31:25.683Z,21.30
2023-05-04T14:33:53.275Z,21.30
2023-05-04T14:36:20.920Z,21.40
2023-05-04T14:38:48.151Z,21.50
2023-05-04T14:41:15.328Z,21.50
2023-05-04T14:43:42.226Z,21.60
2023-05-04T14:46:09.670Z,21.70
2023-05-04T14:48:36.422Z,21.70
2023-05-04T14:51:03.417Z,21.70
2023-05-04T14:53:34.189Z,21.80
2023-05-04T14:56:01.541Z,21.80
2023-05-04T14:58:28.880Z,21.60
2023-05-04T15:00:55.777Z,21.70
2023-05-04T15:03:22.475Z,21.50
2023-05-04T15:05:49.295Z,21.50
2023-05-04T15:08:16.070Z,21.60
2023-05-04T15:10:42.786Z,21.60
2023-05-04T15:13:09.612Z,21.50
2023-05-04T15:15:39.914Z,21.50
2023-05-04T15:18:06.781Z,21.50
2023-05-04T15:20:35.851Z,21.40
2023-05-04T15:23:04.969Z,21.30
2023-05-04T15:25:31.576Z,21.20
2023-05-04T15:27:58.188Z,21.20
2023-05-04T15:30:24.774Z,21.10
2023-05-04T15:32:51.530Z,21.10
2023-05-04T15:35:18.586Z,21.10
2023-05-04T15:37:45.269Z,21.10
2023-05-04T15:40:12.801Z,20.90
2023-05-04T15:42:39.431Z,21.00
2023-05-04T15:45:07.695Z,20.90
2023-05-04T15:47:35.541Z,20.90
2023-05-04T15:50:02.604Z,20.80
2023-05-04T15:52:29.278Z,20.80
2023-05-04T15:54:56.255Z,20.80
2023-05-04T15:57:22.988Z,20.80
2023-05-04T15:59:49.915Z,20.80
2023-05-04T16:02:16.903Z,20.80
2023-05-04T16:04:43.596Z,20.80
2023-05-04T16:07:11.010Z,20.80
2023-05-04T16:09:37.669Z,20.80
2023-05-04T16:12:05.292Z,20.70
2023-05-04T16:14:32.045Z,20.60
2023-05-04T16:17:02.045Z,20.60
2023-05-04T16:19:28.831Z,20.50
2023-05-04T16:21:55.455Z,20.50
2023-05-04T16:24:22.090Z,20.40
2023-05-04T16:26:54.022Z,20.40
2023-05-04T16:29:20.767Z,20.40
2023-05-04T16:31:48.254Z,20.50
2023-05-04T16:34:14.985Z,20.50
2023-05-04T16:36:42.019Z,20.50
2023-05-04T16:39:09.335Z,20.40
2023-05-04T16:41:36.401Z,20.40
2023-05-04T16:44:03.075Z,20.40
2023-05-04T16:46:29.746Z,20.30
2023-05-04T16:48:56.465Z,20.30
2023-05-04T16:51:23.137Z,20.30
2023-05-04T16:53:49.749Z,20.30
2023-05-04T16:56:18.340Z,20.30
2023-05-04T16:58:45.202Z,20.30
2023-05-04T17:01:11.961Z,20.30
2023-05-04T17:03:38.674Z,20.30
2023-05-04T17:06:05.662Z,20.30
2023-05-04T17:08:32.359Z,20.30
2023-05-04T17:10:59.961Z,20.20
2023-05-04T17:13:26.956Z,20.00
2023-05-04T17:15:53.659Z,20.00
2023-05-04T17:18:20.354Z,20.00
2023-05-04T17:20:46.995Z,20.00
2023-05-04T17:23:13.643Z,19.90
2023-05-04T17:25:40.286Z,19.90
2023-05-04T17:28:07.141Z,19.80
2023-05-04T17:30:35.649Z,19.90
2023-05-04T17:33:02.394Z,19.80
2023-05-04T17:35:29.353Z,19.60
2023-05-04T17:37:58.558Z,19.60
2023-05-04T17:40:27.700Z,19.50
2023-05-04T17:42:54.958Z,19.40
2023-05-04T17:45:21.620Z,19.40
2023-05-04T17:47:50.728Z,19.40
2023-05-04T17:50:17.487Z,19.30
2023-05-04T17:52:44.153Z,19.30
2023-05-04T17:55:11.065Z,19.30
2023-05-04T17:57:37.725Z,19.20
2023-05-04T18:00:07.356Z,19.20
2023-05-04T18:02:34.516Z,19.10
2023-05-04T18:05:01.267Z,19.10
2023-05-04T18:07:27.913Z,19.00
2023-05-04T18:09:56.017Z,18.90
2023-05-04T18:12:23.338Z,18.90
2023-05-04T18:14:50.941Z,18.80
2023-05-04T18:17:17.622Z,18.70
2023-05-04T18:19:44.259Z,18.70
2023-05-04T18:22:10.895Z,18.60
2023-05-04T18:24:37.528Z,18.50
2023-05-04T18:27:04.159Z,18.60
2023-05-04T18:29:32.018Z,18.50
2023-05-04T18:31:59.464Z,18.40
2023-05-04T18:34:26.174Z,18.40
2023-05-04T18:36:52.902Z,18.30
2023-05-04T18:39:19.508Z,18.30
2023-05-04T18:41:46.201Z,18.20
2023-05-04T18:44:13.975Z,18.10
2023-05-04T18:46:40.700Z,18.10
2023-05-04T18:49:07.418Z,18.10
2023-05-04T18:51:34.093Z,18.00
2023-05-04T18:54:01.155Z,18.00
2023-05-04T18:56:27.786Z,18.00
2023-05-04T18:58:54.384Z,17.90
2023-05-04T19:01:21.977Z,17.90
2023-05-04T19:03:48.809Z,17.80
2023-05-04T19:06:15.473Z,17.80
2023-05-04T19:08:42.077Z,17.70
2023-05-04T19:11:09.175Z,17.70
2023-05-04T19:13:35.815Z,17.60
2023-05-04T19:16:02.444Z,17.60
2023-05-04T19:18:29.107Z,17.50
2023-05-04T19:20:55.742Z,17.50
2023-05-04T19:23:22.443Z,17.50
2023-05-04T19:25:49.034Z,17.40
2023-05-04T19:28:15.978Z,17.40
2023-05-04T19:30:42.606Z,17.40
2023-05-04T19:33:09.403Z,17.40
2023-05-04T19:35:36.443Z,17.30
2023-05-04T19:38:06.008Z,17.30
2023-05-04T19:40:33.575Z,17.30
2023-05-04T19:43:00.535Z,17.20
2023-05-04T19:45:27.194Z,17.20
2023-05-04T19:47:53.878Z,17.20
2023-05-04T19:50:20.943Z,17.20
2023-05-04T19:52:47.638Z,17.10
2023-05-04T19:55:14.246Z,17.10
2023-05-04T19:57:41.035Z,17.10
2023-05-04T20:00:09.899Z,17.00
2023-05-04T20:02:38.106Z,17.00
2023-05-04T20:05:06.017Z,16.90
2023-05-04T20:07:32.869Z,16.90
2023-05-04T20:09:59.641Z,16.90
2023-05-04T20:12:26.816Z,16.90
2023-05-04T20:14:53.423Z,16.90
2023-05-04T20:17:20.368Z,16.80
2023-05-04T20:19:47.346Z,16.80
2023-05-04T20:22:14.503Z,16.70
2023-05-04T20:24:41.515Z,16.70
2023-05-04T20:27:08.456Z,16.70
2023-05-04T20:29:35.322Z,16.60
2023-05-04T20:32:04.959Z,16.70
2023-05-04T20:34:31.857Z,16.60
2023-05-04T20:36:58.507Z,16.60
2023-05-04T20:39:25.557Z,16.60
2023-05-04T20:41:52.230Z,16.50
2023-05-04T20:44:19.000Z,16.40
2023-05-04T20:46:45.758Z,16.40
2023-05-04T20:49:13.367Z,16.40
2023-05-04T20:51:39.957Z,16.40
2023-05-04T20:54:06.767Z,16.40
2023-05-04T20:56:33.557Z,16.30
2023-05-04T20:59:00.446Z,16.30
2023-05-04T21:01:27.217Z,16.20
2023-05-04T21:03:53.983Z,16.20
2023-05-04T21:06:21.364Z,16.10
2023-05-04T21:08:48.006Z,16.10
2023-05-04T21:11:14.698Z,16.10
2023-05-04T21:13:41.378Z,16.10
2023-05-04T21:16:08.873Z,16.00
2023-05-04T21:18:35.757Z,16.00
2023-05-04T21:21:05.766Z,16.00
2023-05-04T21:23:32.389Z,16.00
2023-05-04T21:26:05.338Z,15.90
2023-05-04T21:28:32.387Z,15.90
2023-05-04T21:30:59.260Z,15.80
2023-05-04T21:33:25.973Z,15.90
2023-05-04T21:35:52.677Z,15.80
2023-05-04T21:38:21.863Z,15.80
2023-05-04T21:40:48.931Z,15.70
2023-05-04T21:43:15.645Z,15.70
2023-05-04T21:45:42.351Z,15.70
2023-05-04T21:48:09.024Z,15.70
2023-05-04T21:50:35.760Z,15.70
2023-05-04T21:53:02.434Z,15.70
2023-05-04T21:55:30.267Z,15.70
2023-05-04T21:57:57.249Z,15.60
2023-05-04T22:00:24.281Z,15.60
2023-05-04T22:02:53.951Z,15.50
2023-05-04T22:05:22.213Z,15.50
2023-05-04T22:07:49.410Z,15.50
2023-05-04T22:10:16.052Z,15.50
2023-05-04T22:12:42.747Z,15.40
2023-05-04T22:15:10.323Z,15.40
2023-05-04T22:17:36.970Z,15.40
2023-05-04T22:20:03.845Z,15.30
2023-05-04T22:22:30.467Z,15.30
2023-05-04T22:24:57.273Z,15.30
2023-05-04T22:27:23.922Z,15.20
2023-05-04T22:29:50.702Z,15.20
2023-05-04T22:32:17.296Z,15.10
2023-05-04T22:34:44.920Z,15.10
2023-05-04T22:37:12.001Z,15.10
2023-05-04T22:39:38.698Z,15.00
2023-05-04T22:42:05.427Z,15.00
2023-05-04T22:44:33.637Z,14.90
2023-05-04T22:47:00.721Z,14.90
2023-05-04T22:49:27.440Z,14.90
2023-05-04T22:51:54.120Z,14.90
2023-05-04T22:54:20.710Z,14.90
2023-05-04T22:56:47.287Z,14.80
2023-05-04T22:59:13.908Z,14.80
2023-05-04T23:01:43.220Z,14.80
2023-05-04T23:04:11.428Z,14.80
2023-05-04T23:06:38.644Z,14.80
2023-05-04T23:09:05.423Z,14.70
2023-05-04T23:11:32.469Z,14.80
2023-05-04T23:13:59.301Z,14.70
2023-05-04T23:16:26.023Z,14.70
2023-05-04T23:18:52.756Z,14.60
2023-05-04T23:21:19.439Z,14.60
2023-05-04T23:23:46.148Z,14.60
2023-05-04T23:26:12.780Z,14.50
2023-05-04T23:28:39.408Z,14.50
2023-05-04T23:31:06.173Z,14.40
2023-05-04T23:33:32.818Z,14.40
2023-05-04T23:35:59.477Z,14.40
2023-05-04T23:38:26.086Z,14.40
2023-05-04T23:40:53.764Z,14.40
2023-05-04T23:43:21.775Z,14.30
2023-05-04T23:45:48.635Z,14.30
2023-05-04T23:48:15.879Z,14.30
2023-05-04T23:50:54.898Z,14.30
2023-05-04T23:53:21.526Z,14.30
2023-05-04T23:55:57.354Z,14.20
2023-05-04T23:58:23.958Z,14.20
